createdAt,value
2017-07-15T00:02:04.133Z,7.60
2017-07-15T00:04:31.675Z,6.33
2017-07-15T00:06:59.216Z,8.40
2017-07-15T00:09:26.768Z,9.23
2017-07-15T00:11:55.060Z,8.60
2017-07-15T00:14:22.602Z,8.43
2017-07-15T00:16:50.123Z,7.60
2017-07-15T00:19:17.671Z,9.20
2017-07-15T00:21:45.198Z,7.90
2017-07-15T00:24:13.484Z,7.40
2017-07-15T00:26:41.792Z,6.67
2017-07-15T00:29:09.318Z,6.50
2017-07-15T00:31:37.628Z,6.30
2017-07-15T00:34:05.156Z,6.43
2017-07-15T00:36:33.466Z,6.27
2017-07-15T00:39:00.982Z,5.73
2017-07-15T00:41:28.540Z,6.03
2017-07-15T00:43:56.826Z,5.57
2017-07-15T00:46:24.351Z,5.50
2017-07-15T00:48:52.683Z,6.37
2017-07-15T00:51:20.199Z,5.80
2017-07-15T00:53:48.499Z,5.43
2017-07-15T00:56:16.023Z,5.13
2017-07-15T00:58:44.332Z,5.50
2017-07-15T01:01:11.855Z,5.17
2017-07-15T01:03:39.415Z,5.10
2017-07-15T01:06:06.939Z,4.50
2017-07-15T01:08:34.459Z,4.77
2017-07-15T01:11:02.003Z,5.23
2017-07-15T01:13:29.534Z,4.50
2017-07-15T01:15:57.074Z,4.20
2017-07-15T01:18:24.600Z,4.17
2017-07-15T01:20:52.145Z,4.97
2017-07-15T01:23:20.435Z,4.00
2017-07-15T01:25:47.987Z,4.13
2017-07-15T01:28:15.509Z,5.23
2017-07-15T01:30:43.032Z,6.13
2017-07-15T01:33:10.576Z,4.47
2017-07-15T01:35:38.100Z,4.80
2017-07-15T01:38:06.408Z,4.70
2017-07-15T01:40:33.988Z,4.30
2017-07-15T01:43:01.531Z,6.10
2017-07-15T01:45:29.056Z,4.37
2017-07-15T01:47:56.599Z,4.43
2017-07-15T01:50:24.119Z,4.83
2017-07-15T01:52:52.434Z,5.20
2017-07-15T01:55:19.960Z,3.93
2017-07-15T01:57:47.484Z,4.40
2017-07-15T02:00:15.022Z,3.70
2017-07-15T02:02:42.542Z,4.27
2017-07-15T02:05:10.082Z,5.07
2017-07-15T02:07:38.367Z,4.33
2017-07-15T02:10:05.915Z,4.10
2017-07-15T02:12:33.439Z,3.87
2017-07-15T02:15:00.984Z,4.03
2017-07-15T02:17:28.512Z,4.10
2017-07-15T02:19:56.067Z,4.13
2017-07-15T02:22:23.585Z,4.83
2017-07-15T02:24:51.108Z,5.60
2017-07-15T02:27:18.651Z,3.90
2017-07-15T02:29:46.182Z,4.67
2017-07-15T02:32:15.064Z,4.40
2017-07-15T02:34:42.587Z,4.03
2017-07-15T02:37:10.125Z,4.20
2017-07-15T02:39:37.648Z,3.70
2017-07-15T02:42:05.961Z,4.37
2017-07-15T02:44:33.484Z,3.93
2017-07-15T02:47:01.767Z,4.17
2017-07-15T02:49:30.076Z,4.20
2017-07-15T02:51:57.604Z,3.93
2017-07-15T02:54:25.148Z,4.30
2017-07-15T02:56:52.667Z,4.40
2017-07-15T02:59:20.211Z,4.30
2017-07-15T03:01:47.749Z,5.20
2017-07-15T03:04:16.059Z,4.40
2017-07-15T03:06:43.579Z,4.47
2017-07-15T03:09:11.127Z,4.30
2017-07-15T03:11:38.648Z,4.40
2017-07-15T03:14:06.944Z,4.87
2017-07-15T03:16:34.484Z,4.63
2017-07-15T03:19:02.767Z,4.13
2017-07-15T03:21:30.309Z,4.83
2017-07-15T03:23:58.607Z,5.67
2017-07-15T03:26:38.101Z,5.40
2017-07-15T03:29:05.626Z,4.10
2017-07-15T03:31:33.177Z,6.13
2017-07-15T03:34:01.458Z,5.77
2017-07-15T03:36:29.755Z,5.80
2017-07-15T03:38:57.304Z,5.80
2017-07-15T03:41:25.591Z,5.03
2017-07-15T03:43:53.135Z,4.77
2017-07-15T03:46:21.424Z,5.40
2017-07-15T03:48:48.967Z,4.23
2017-07-15T03:51:17.252Z,4.53
2017-07-15T03:53:45.562Z,5.20
2017-07-15T03:56:13.087Z,5.03
2017-07-15T03:58:40.633Z,3.93
2017-07-15T04:01:08.922Z,3.90
2017-07-15T04:03:36.487Z,3.57
2017-07-15T04:06:04.007Z,4.17
2017-07-15T04:08:32.294Z,4.20
2017-07-15T04:10:59.841Z,4.63
2017-07-15T04:13:27.368Z,4.50
2017-07-15T04:15:54.910Z,3.90
2017-07-15T04:18:22.427Z,4.40
2017-07-15T04:20:49.970Z,5.03
2017-07-15T04:23:18.262Z,4.70
2017-07-15T04:25:45.808Z,4.20
2017-07-15T04:28:14.099Z,4.27
2017-07-15T04:30:41.624Z,4.13
2017-07-15T04:33:09.168Z,3.80
2017-07-15T04:35:36.689Z,4.00
2017-07-15T04:38:04.235Z,3.77
2017-07-15T04:40:31.754Z,4.07
2017-07-15T04:42:59.295Z,3.40
2017-07-15T04:45:26.820Z,3.67
2017-07-15T04:47:54.363Z,2.97
2017-07-15T04:50:21.890Z,3.80
2017-07-15T04:52:50.207Z,3.87
2017-07-15T04:55:17.726Z,3.80
2017-07-15T04:57:45.308Z,3.37
2017-07-15T05:00:12.846Z,4.43
2017-07-15T05:02:41.142Z,3.40
2017-07-15T05:05:08.693Z,4.50
2017-07-15T05:07:36.218Z,3.77
2017-07-15T05:10:03.755Z,3.07
2017-07-15T05:12:31.273Z,4.00
2017-07-15T05:14:58.811Z,3.70
2017-07-15T05:17:26.327Z,2.87
2017-07-15T05:19:53.875Z,3.17
2017-07-15T05:22:21.399Z,3.27
2017-07-15T05:24:49.683Z,3.60
2017-07-15T05:27:17.220Z,3.33
2017-07-15T05:29:45.512Z,4.83
2017-07-15T05:32:13.059Z,3.40
2017-07-15T05:34:41.348Z,3.17
2017-07-15T05:37:08.892Z,3.50
2017-07-15T05:39:37.188Z,3.03
2017-07-15T05:42:04.727Z,3.70
2017-07-15T05:44:32.247Z,3.20
2017-07-15T05:47:00.555Z,3.67
2017-07-15T05:49:28.088Z,4.70
2017-07-15T05:51:56.403Z,5.10
2017-07-15T05:54:23.927Z,5.57
2017-07-15T05:56:51.459Z,4.83
2017-07-15T05:59:19.004Z,4.70
2017-07-15T06:01:46.529Z,4.53
2017-07-15T06:04:14.838Z,5.37
2017-07-15T06:06:42.360Z,4.50
2017-07-15T06:09:10.671Z,4.47
2017-07-15T06:11:38.192Z,5.43
2017-07-15T06:14:05.743Z,5.50
2017-07-15T06:16:33.269Z,4.13
2017-07-15T06:19:00.823Z,4.93
2017-07-15T06:21:28.342Z,5.07
2017-07-15T06:23:55.864Z,3.97
2017-07-15T06:26:24.177Z,6.40
2017-07-15T06:28:51.695Z,5.93
2017-07-15T06:31:19.243Z,5.70
2017-07-15T06:33:46.769Z,7.00
2017-07-15T06:36:14.311Z,5.10
2017-07-15T06:38:41.836Z,5.67
2017-07-15T06:41:09.383Z,6.03
2017-07-15T06:43:36.904Z,5.30
2017-07-15T06:46:04.429Z,6.10
2017-07-15T06:48:31.972Z,6.10
2017-07-15T06:50:59.500Z,5.87
2017-07-15T06:53:27.048Z,6.60
2017-07-15T06:55:54.578Z,5.73
2017-07-15T06:58:22.954Z,5.17
2017-07-15T07:00:50.480Z,4.97
2017-07-15T07:03:18.027Z,5.10
2017-07-15T07:05:45.556Z,5.80
2017-07-15T07:08:13.082Z,6.30
2017-07-15T07:10:41.388Z,5.70
2017-07-15T07:13:08.917Z,5.93
2017-07-15T07:15:37.230Z,4.40
2017-07-15T07:18:04.756Z,5.00
2017-07-15T07:20:32.300Z,4.07
2017-07-15T07:22:59.822Z,4.10
2017-07-15T07:25:27.370Z,5.30
2017-07-15T07:27:54.895Z,4.93
2017-07-15T07:30:23.212Z,4.60
2017-07-15T07:32:50.730Z,4.43
2017-07-15T07:35:19.047Z,4.70
2017-07-15T07:37:46.567Z,4.57
2017-07-15T07:40:14.089Z,4.07
2017-07-15T07:42:41.627Z,5.03
2017-07-15T07:45:09.162Z,4.30
2017-07-15T07:47:36.708Z,3.47
2017-07-15T07:50:04.999Z,3.83
2017-07-15T07:52:32.543Z,3.50
2017-07-15T07:55:00.835Z,3.73
2017-07-15T07:57:28.380Z,3.50
2017-07-15T07:59:56.672Z,3.50
2017-07-15T08:02:24.226Z,4.17
2017-07-15T08:04:51.748Z,3.20
2017-07-15T08:07:19.296Z,3.70
2017-07-15T08:09:47.405Z,3.70
2017-07-15T08:12:17.702Z,3.33
2017-07-15T08:14:45.246Z,3.23
2017-07-15T08:17:12.759Z,3.33
2017-07-15T08:19:41.068Z,3.50
2017-07-15T08:22:08.715Z,3.30
2017-07-15T08:24:36.259Z,2.77
2017-07-15T08:27:03.786Z,3.00
2017-07-15T08:29:31.320Z,3.13
2017-07-15T08:31:58.843Z,2.90
2017-07-15T08:34:26.404Z,2.70
2017-07-15T08:36:53.935Z,2.70
2017-07-15T08:39:22.222Z,3.63
2017-07-15T08:41:49.770Z,2.87
2017-07-15T08:44:17.284Z,3.33
2017-07-15T08:46:44.826Z,2.53
2017-07-15T08:49:13.111Z,2.50
2017-07-15T08:51:41.418Z,2.30
2017-07-15T08:54:08.943Z,2.73
2017-07-15T08:56:37.251Z,2.63
2017-07-15T08:59:04.782Z,2.20
2017-07-15T09:01:33.107Z,2.30
2017-07-15T09:04:00.628Z,2.70
2017-07-15T09:06:28.186Z,2.63
2017-07-15T09:08:56.482Z,2.27
2017-07-15T09:11:24.018Z,2.53
2017-07-15T09:13:52.334Z,3.70
2017-07-15T09:16:19.862Z,2.70
2017-07-15T09:18:48.167Z,3.53
2017-07-15T09:21:15.689Z,2.57
2017-07-15T09:23:43.233Z,2.50
2017-07-15T09:26:10.759Z,2.43
2017-07-15T09:28:39.063Z,2.77
2017-07-15T09:31:06.583Z,2.70
2017-07-15T09:33:34.109Z,2.37
2017-07-15T09:36:01.651Z,2.30
2017-07-15T09:38:29.176Z,2.70
2017-07-15T09:40:56.717Z,2.30
2017-07-15T09:43:25.012Z,1.97
2017-07-15T09:45:53.319Z,2.60
2017-07-15T09:48:20.843Z,2.87
2017-07-15T09:50:49.154Z,2.57
2017-07-15T09:53:16.674Z,2.63
2017-07-15T09:55:44.966Z,2.60
2017-07-15T09:58:12.507Z,2.77
2017-07-15T10:00:40.028Z,2.70
2017-07-15T10:03:07.575Z,3.03
2017-07-15T10:05:35.863Z,3.00
2017-07-15T10:08:03.406Z,2.47
2017-07-15T10:10:31.699Z,2.83
2017-07-15T10:12:59.226Z,2.90
2017-07-15T10:15:26.770Z,2.67
2017-07-15T10:17:54.287Z,2.40
2017-07-15T10:20:21.827Z,3.10
2017-07-15T10:22:50.119Z,3.00
2017-07-15T10:25:17.664Z,2.80
2017-07-15T10:27:46.548Z,3.00
2017-07-15T10:30:16.847Z,3.23
2017-07-15T10:32:45.273Z,3.37
2017-07-15T10:35:12.896Z,3.13
2017-07-15T10:37:40.423Z,3.30
2017-07-15T10:40:07.944Z,4.07
2017-07-15T10:42:35.487Z,3.50
2017-07-15T10:45:03.783Z,3.93
2017-07-15T10:47:32.091Z,3.10
2017-07-15T10:49:59.616Z,4.37
2017-07-15T10:52:27.926Z,3.27
2017-07-15T10:54:55.447Z,3.80
2017-07-15T10:57:23.775Z,3.23
2017-07-15T10:59:51.295Z,3.27
2017-07-15T11:02:19.584Z,3.00
2017-07-15T11:04:47.133Z,2.63
2017-07-15T11:07:15.420Z,2.93
2017-07-15T11:09:43.031Z,3.10
2017-07-15T11:12:10.557Z,3.17
2017-07-15T11:14:38.104Z,2.80
2017-07-15T11:17:05.631Z,2.83
2017-07-15T11:19:33.182Z,2.67
2017-07-15T11:22:00.702Z,2.60
2017-07-15T11:24:28.227Z,2.47
2017-07-15T11:26:55.776Z,2.70
2017-07-15T11:29:23.323Z,3.07
2017-07-15T11:31:50.864Z,2.40
2017-07-15T11:34:19.159Z,2.80
2017-07-15T11:36:46.707Z,2.90
2017-07-15T11:39:14.993Z,2.77
2017-07-15T11:41:42.547Z,2.63
2017-07-15T11:44:10.831Z,2.80
2017-07-15T11:46:38.371Z,3.00
2017-07-15T11:49:06.660Z,2.30
2017-07-15T11:51:34.215Z,2.43
2017-07-15T11:54:01.746Z,2.63
2017-07-15T11:56:29.273Z,1.90
2017-07-15T11:58:56.817Z,2.73
2017-07-15T12:01:24.344Z,2.97
2017-07-15T12:03:52.661Z,3.13
2017-07-15T12:06:20.190Z,3.10
2017-07-15T12:08:48.498Z,2.87
2017-07-15T12:11:16.790Z,2.77
2017-07-15T12:13:44.336Z,3.03
2017-07-15T12:16:12.630Z,3.33
2017-07-15T12:18:40.184Z,3.70
2017-07-15T12:21:07.703Z,3.07
2017-07-15T12:23:35.231Z,3.10
2017-07-15T12:26:02.776Z,3.53
2017-07-15T12:28:30.311Z,2.87
2017-07-15T12:30:57.849Z,2.70
2017-07-15T12:33:25.382Z,3.10
2017-07-15T12:35:52.931Z,3.00
2017-07-15T12:38:21.224Z,3.60
2017-07-15T12:40:48.767Z,2.97
2017-07-15T12:43:17.055Z,2.90
2017-07-15T12:45:44.602Z,2.70
2017-07-15T12:48:12.889Z,2.53
2017-07-15T12:50:40.435Z,2.00
2017-07-15T12:53:08.726Z,2.40
2017-07-15T12:55:37.012Z,2.30
2017-07-15T12:58:04.550Z,2.57
2017-07-15T13:00:32.839Z,2.47
2017-07-15T13:03:01.155Z,2.37
2017-07-15T13:05:28.677Z,2.60
2017-07-15T13:07:56.222Z,2.30
2017-07-15T13:10:23.749Z,2.50
2017-07-15T13:12:51.305Z,2.80
2017-07-15T13:15:18.824Z,2.63
2017-07-15T13:17:47.106Z,3.20
2017-07-15T13:20:14.653Z,2.40
2017-07-15T13:22:42.938Z,2.90
2017-07-15T13:25:11.251Z,3.30
2017-07-15T13:27:38.780Z,3.50
2017-07-15T13:30:06.326Z,2.80
2017-07-15T13:32:33.845Z,2.70
2017-07-15T13:35:01.391Z,3.10
2017-07-15T13:37:28.912Z,2.93
2017-07-15T13:39:56.446Z,2.80
2017-07-15T13:42:23.970Z,3.10
2017-07-15T13:44:51.518Z,3.43
2017-07-15T13:47:19.806Z,3.00
2017-07-15T13:49:47.331Z,3.73
2017-07-15T13:52:14.873Z,3.40
2017-07-15T13:54:42.392Z,3.27
2017-07-15T13:57:09.938Z,3.13
2017-07-15T13:59:37.470Z,3.07
2017-07-15T14:02:05.012Z,3.53
2017-07-15T14:04:32.541Z,3.20
2017-07-15T14:07:00.098Z,3.33
2017-07-15T14:09:27.635Z,3.30
2017-07-15T14:11:55.163Z,2.90
2017-07-15T14:14:22.705Z,2.40
2017-07-15T14:16:50.995Z,2.67
2017-07-15T14:19:18.537Z,2.70
2017-07-15T14:21:46.053Z,3.37
2017-07-15T14:24:13.635Z,3.40
2017-07-15T14:26:41.157Z,3.43
2017-07-15T14:29:09.464Z,3.13
2017-07-15T14:31:36.988Z,3.70
2017-07-15T14:34:05.297Z,3.03
2017-07-15T14:36:32.825Z,3.63
2017-07-15T14:39:01.143Z,3.03
2017-07-15T14:41:28.667Z,2.60
2017-07-15T14:43:56.193Z,2.90
2017-07-15T14:46:23.736Z,2.70
2017-07-15T14:48:51.252Z,3.70
2017-07-15T14:51:19.560Z,4.43
2017-07-15T14:53:47.091Z,3.03
2017-07-15T14:56:15.405Z,3.13
2017-07-15T14:58:42.931Z,2.83
2017-07-15T15:01:11.239Z,2.50
2017-07-15T15:03:39.523Z,2.40
2017-07-15T15:06:07.081Z,2.73
2017-07-15T15:08:34.608Z,2.50
2017-07-15T15:11:02.150Z,2.33
2017-07-15T15:13:29.679Z,2.83
2017-07-15T15:15:57.227Z,2.37
2017-07-15T15:18:24.772Z,2.63
2017-07-15T15:20:53.066Z,2.63
2017-07-15T15:23:20.607Z,2.87
2017-07-15T15:25:48.889Z,3.10
2017-07-15T15:28:16.439Z,2.80
2017-07-15T15:30:43.959Z,2.77
2017-07-15T15:33:11.570Z,2.80
2017-07-15T15:35:39.095Z,3.10
2017-07-15T15:38:07.407Z,2.90
2017-07-15T15:40:34.930Z,2.70
2017-07-15T15:43:02.480Z,2.50
2017-07-15T15:45:30.772Z,3.43
2017-07-15T15:47:58.295Z,2.80
2017-07-15T15:50:25.835Z,2.90
2017-07-15T15:52:53.363Z,2.70
2017-07-15T15:55:20.908Z,2.77
2017-07-15T15:57:48.431Z,3.00
2017-07-15T16:00:15.968Z,3.23
2017-07-15T16:02:43.487Z,2.80
2017-07-15T16:05:11.030Z,2.40
2017-07-15T16:07:38.551Z,2.80
2017-07-15T16:10:06.104Z,2.30
2017-07-15T16:12:33.626Z,2.50
2017-07-15T16:15:01.146Z,2.80
2017-07-15T16:17:28.688Z,2.60
2017-07-15T16:19:56.213Z,2.97
2017-07-15T16:22:23.759Z,2.60
2017-07-15T16:24:51.279Z,3.10
2017-07-15T16:27:18.820Z,3.00
2017-07-15T16:29:46.344Z,3.13
2017-07-15T16:32:14.223Z,3.33
2017-07-15T16:34:41.748Z,3.43
2017-07-15T16:37:10.052Z,2.77
2017-07-15T16:39:37.579Z,2.27
2017-07-15T16:42:05.911Z,3.10
2017-07-15T16:44:33.435Z,2.60
2017-07-15T16:47:00.950Z,3.10
2017-07-15T16:49:28.494Z,3.33
2017-07-15T16:51:56.017Z,2.90
2017-07-15T16:54:23.563Z,3.57
2017-07-15T16:56:51.851Z,3.07
2017-07-15T16:59:19.400Z,4.20
2017-07-15T17:01:46.927Z,3.07
2017-07-15T17:04:14.474Z,3.33
2017-07-15T17:06:42.005Z,2.70
2017-07-15T17:09:09.557Z,3.07
2017-07-15T17:11:37.079Z,7.03
2017-07-15T17:14:04.599Z,4.13
2017-07-15T17:16:32.138Z,4.13
2017-07-15T17:19:00.432Z,5.30
2017-07-15T17:21:27.975Z,2.67
2017-07-15T17:23:56.374Z,3.03
2017-07-15T17:26:23.919Z,3.00
2017-07-15T17:28:51.449Z,2.83
2017-07-15T17:31:18.989Z,3.20
2017-07-15T17:33:47.281Z,2.67
2017-07-15T17:36:14.828Z,3.10
2017-07-15T17:38:42.354Z,2.80
2017-07-15T17:41:09.886Z,2.63
2017-07-15T17:43:37.433Z,2.83
2017-07-15T17:46:05.720Z,2.63
2017-07-15T17:48:34.031Z,2.93
2017-07-15T17:51:01.558Z,3.20
2017-07-15T17:53:29.108Z,3.60
2017-07-15T17:55:57.396Z,4.17
2017-07-15T17:58:24.948Z,4.70
2017-07-15T18:00:53.240Z,4.10
2017-07-15T18:03:20.787Z,3.07
2017-07-15T18:05:49.071Z,4.00
2017-07-15T18:08:16.596Z,3.57
2017-07-15T18:10:44.148Z,3.50
2017-07-15T18:13:11.676Z,2.93
2017-07-15T18:15:39.987Z,3.03
2017-07-15T18:18:07.508Z,3.77
2017-07-15T18:20:35.814Z,3.37
2017-07-15T18:23:03.338Z,3.30
2017-07-15T18:25:30.881Z,3.50
2017-07-15T18:27:59.170Z,2.97
2017-07-15T18:30:27.480Z,2.93
2017-07-15T18:32:55.005Z,3.10
2017-07-15T18:35:23.331Z,3.90
2017-07-15T18:37:50.847Z,2.90
2017-07-15T18:40:19.141Z,3.60
2017-07-15T18:42:46.680Z,3.90
2017-07-15T18:45:14.972Z,3.57
2017-07-15T18:47:42.510Z,3.03
2017-07-15T18:50:10.032Z,3.50
2017-07-15T18:52:37.576Z,3.70
2017-07-15T18:55:05.108Z,3.20
2017-07-15T18:57:32.654Z,3.43
2017-07-15T19:00:00.180Z,3.07
2017-07-15T19:02:27.738Z,3.40
2017-07-15T19:04:55.260Z,2.90
2017-07-15T19:07:22.782Z,3.77
2017-07-15T19:09:50.314Z,3.40
2017-07-15T19:12:17.839Z,3.70
2017-07-15T19:14:45.387Z,3.17
2017-07-15T19:17:13.680Z,2.90
2017-07-15T19:19:41.225Z,3.43
2017-07-15T19:22:09.519Z,3.43
2017-07-15T19:24:37.826Z,3.13
2017-07-15T19:27:05.346Z,2.27
2017-07-15T19:29:32.899Z,2.67
2017-07-15T19:32:01.194Z,2.80
2017-07-15T19:34:28.719Z,2.70
2017-07-15T19:36:56.258Z,2.47
2017-07-15T19:39:23.783Z,2.47
2017-07-15T19:41:51.325Z,2.23
2017-07-15T19:44:18.851Z,2.20
2017-07-15T19:46:46.391Z,2.90
2017-07-15T19:49:13.918Z,3.20
2017-07-15T19:51:42.233Z,3.30
2017-07-15T19:54:09.760Z,3.90
2017-07-15T19:56:37.311Z,3.10
2017-07-15T19:59:04.839Z,3.70
2017-07-15T20:01:32.356Z,4.30
2017-07-15T20:03:59.902Z,3.80
2017-07-15T20:06:27.422Z,2.97
2017-07-15T20:08:54.958Z,3.17
2017-07-15T20:11:23.248Z,3.10
2017-07-15T20:13:51.554Z,4.30
2017-07-15T20:16:19.068Z,2.93
2017-07-15T20:18:47.392Z,3.23
2017-07-15T20:21:15.675Z,3.17
2017-07-15T20:23:43.192Z,2.80
2017-07-15T20:26:10.736Z,3.17
2017-07-15T20:28:38.262Z,3.63
2017-07-15T20:31:05.808Z,3.27
2017-07-15T20:33:34.096Z,3.40
2017-07-15T20:36:07.251Z,3.10
2017-07-15T20:38:34.780Z,3.50
2017-07-15T20:41:02.328Z,2.73
2017-07-15T20:43:30.622Z,2.80
2017-07-15T20:45:58.166Z,2.40
2017-07-15T20:48:25.692Z,2.50
2017-07-15T20:50:53.243Z,2.40
2017-07-15T20:53:26.547Z,2.30
2017-07-15T20:55:54.863Z,2.10
2017-07-15T20:58:22.390Z,2.23
2017-07-15T21:00:50.679Z,2.23
2017-07-15T21:03:18.218Z,2.67
2017-07-15T21:05:45.739Z,2.37
2017-07-15T21:08:13.275Z,2.23
2017-07-15T21:10:40.795Z,1.80
2017-07-15T21:13:08.340Z,2.50
2017-07-15T21:15:35.859Z,2.10
2017-07-15T21:18:03.401Z,2.37
2017-07-15T21:20:31.692Z,2.77
2017-07-15T21:22:59.234Z,3.20
2017-07-15T21:25:27.527Z,3.47
2017-07-15T21:27:55.079Z,3.73
2017-07-15T21:30:22.607Z,3.67
2017-07-15T21:32:50.908Z,3.40
2017-07-15T21:35:18.447Z,3.47
2017-07-15T21:37:46.740Z,3.07
2017-07-15T21:40:14.280Z,2.60
2017-07-15T21:42:41.808Z,3.20
2017-07-15T21:45:10.116Z,3.20
2017-07-15T21:47:38.411Z,2.90
2017-07-15T21:50:05.956Z,2.30
2017-07-15T21:52:33.477Z,2.20
2017-07-15T21:55:01.028Z,3.60
2017-07-15T21:57:28.552Z,2.70
2017-07-15T21:59:56.076Z,2.20
2017-07-15T22:02:24.389Z,2.53
2017-07-15T22:04:51.909Z,2.37
2017-07-15T22:07:19.451Z,2.23
2017-07-15T22:09:46.971Z,2.20
2017-07-15T22:12:15.026Z,2.10
2017-07-15T22:14:42.545Z,2.10
2017-07-15T22:17:10.091Z,2.13
2017-07-15T22:19:37.611Z,1.80
2017-07-15T22:22:05.166Z,1.97
2017-07-15T22:24:32.683Z,1.80
2017-07-15T22:27:00.967Z,2.57
2017-07-15T22:29:29.273Z,2.40
2017-07-15T22:31:56.794Z,3.07
2017-07-15T22:34:25.100Z,2.43
2017-07-15T22:36:52.622Z,2.80
2017-07-15T22:39:20.935Z,3.80
2017-07-15T22:41:48.465Z,3.17
2017-07-15T22:44:16.019Z,2.80
2017-07-15T22:46:43.540Z,3.10
2017-07-15T22:49:11.064Z,2.40
2017-07-15T22:51:38.606Z,2.97
2017-07-15T22:54:06.136Z,2.13
2017-07-15T22:56:33.678Z,2.40
2017-07-15T22:59:01.197Z,2.93
2017-07-15T23:01:28.740Z,3.03
2017-07-15T23:03:56.260Z,2.30
2017-07-15T23:06:23.808Z,2.80
2017-07-15T23:08:51.330Z,3.30
2017-07-15T23:11:18.856Z,2.63
2017-07-15T23:13:47.164Z,3.23
2017-07-15T23:16:14.688Z,3.10
2017-07-15T23:18:43.005Z,3.27
2017-07-15T23:21:10.536Z,3.57
2017-07-15T23:23:38.079Z,3.07
2017-07-15T23:26:06.363Z,2.97
2017-07-15T23:28:34.670Z,3.37
2017-07-15T23:31:02.197Z,4.10
2017-07-15T23:33:30.482Z,4.50
2017-07-15T23:35:58.019Z,3.13
2017-07-15T23:38:25.547Z,3.10
2017-07-15T23:40:53.091Z,2.90
2017-07-15T23:43:20.611Z,2.97
2017-07-15T23:45:48.163Z,2.87
2017-07-15T23:48:15.680Z,2.73
2017-07-15T23:50:43.221Z,2.87
2017-07-15T23:53:10.751Z,2.77
2017-07-15T23:55:38.303Z,2.80
2017-07-15T23:58:05.827Z,2.93
